createdAt,value
2019-02-23T00:00:25.493Z,56.15
2019-02-23T00:01:25.462Z,57.62
2019-02-23T00:02:25.453Z,56.67
2019-02-23T00:03:25.460Z,56.57
2019-02-23T00:04:25.441Z,56.26
2019-02-23T00:05:25.416Z,56.88
2019-02-23T00:06:29.800Z,57.51
2019-02-23T00:07:25.393Z,56.46
2019-02-23T00:08:25.392Z,55.83
2019-02-23T00:09:25.409Z,55.41
2019-02-23T00:10:25.363Z,56.75
2019-02-23T00:11:25.351Z,56.54
2019-02-23T00:12:25.352Z,55.41
2019-02-23T00:13:25.329Z,55.52
2019-02-23T00:14:25.364Z,55.21
2019-02-23T00:15:25.319Z,55.00
2019-02-23T00:16:25.299Z,55.41
2019-02-23T00:17:25.285Z,56.36
2019-02-23T00:18:25.274Z,55.41
2019-02-23T00:19:25.422Z,55.73
2019-02-23T00:20:25.266Z,54.58
2019-02-23T00:21:25.247Z,56.36
2019-02-23T00:22:25.237Z,55.10
2019-02-23T00:23:25.218Z,54.89
2019-02-23T00:24:25.274Z,54.16
2019-02-23T00:25:25.208Z,54.37
2019-02-23T00:26:25.187Z,54.37
2019-02-23T00:27:25.178Z,54.37
2019-02-23T00:28:25.164Z,56.04
2019-02-23T00:29:25.212Z,55.83
2019-02-23T00:30:25.150Z,55.00
2019-02-23T00:31:25.147Z,54.79
2019-02-23T00:32:25.125Z,55.21
2019-02-23T00:33:25.116Z,54.05
2019-02-23T00:34:25.150Z,53.53
2019-02-23T00:35:25.101Z,53.53
2019-02-23T00:36:25.076Z,53.32
2019-02-23T00:37:25.078Z,54.58
2019-02-23T00:38:25.069Z,55.41
2019-02-23T00:39:25.088Z,53.95
2019-02-23T00:40:25.030Z,54.05
2019-02-23T00:41:25.030Z,53.42
2019-02-23T00:42:25.014Z,54.26
2019-02-23T00:43:25.018Z,53.85
2019-02-23T00:44:25.019Z,55.00
2019-02-23T00:45:24.981Z,55.21
2019-02-23T00:46:24.965Z,53.95
2019-02-23T00:47:25.032Z,54.79
2019-02-23T00:48:24.949Z,54.47
2019-02-23T00:49:35.577Z,54.05
2019-02-23T00:50:25.923Z,53.74
2019-02-23T00:51:24.905Z,53.53
2019-02-23T00:52:24.912Z,53.95
2019-02-23T00:53:24.888Z,54.79
2019-02-23T00:54:24.906Z,54.58
2019-02-23T00:55:24.862Z,53.95
2019-02-23T00:56:24.858Z,53.42
2019-02-23T00:57:24.842Z,53.53
2019-02-23T00:58:24.858Z,53.74
2019-02-23T00:59:24.845Z,53.53
2019-02-23T01:00:24.815Z,53.32
2019-02-23T01:01:24.796Z,53.95
2019-02-23T01:02:24.788Z,53.74
2019-02-23T01:03:24.850Z,53.53
2019-02-23T01:04:24.795Z,53.42
2019-02-23T01:05:24.760Z,53.85
2019-02-23T01:06:24.863Z,53.64
2019-02-23T01:07:24.738Z,53.64
2019-02-23T01:08:24.816Z,54.37
2019-02-23T01:09:24.748Z,55.31
2019-02-23T01:10:24.709Z,54.05
2019-02-23T01:11:24.701Z,53.53
2019-02-23T01:12:24.694Z,53.92
2019-02-23T01:13:24.677Z,54.97
2019-02-23T01:14:24.721Z,53.74
2019-02-23T01:15:24.647Z,53.72
2019-02-23T01:16:24.633Z,54.13
2019-02-23T01:17:24.629Z,53.64
2019-02-23T01:18:24.645Z,53.61
2019-02-23T01:19:24.616Z,53.53
2019-02-23T01:20:24.605Z,53.53
2019-02-23T01:21:24.583Z,53.95
2019-02-23T01:22:24.573Z,53.64
2019-02-23T01:23:24.561Z,55.41
2019-02-23T01:24:24.579Z,53.53
2019-02-23T01:25:24.539Z,54.05
2019-02-23T01:26:24.526Z,53.95
2019-02-23T01:27:24.527Z,53.95
2019-02-23T01:28:24.501Z,54.26
2019-02-23T01:29:24.516Z,55.00
2019-02-23T01:30:24.478Z,53.95
2019-02-23T01:31:24.687Z,53.34
2019-02-23T01:32:24.473Z,54.18
2019-02-23T01:33:24.471Z,54.37
2019-02-23T01:34:24.437Z,54.50
2019-02-23T01:35:24.449Z,54.92
2019-02-23T01:36:24.464Z,55.02
2019-02-23T01:37:24.407Z,54.71
2019-02-23T01:38:24.391Z,55.55
2019-02-23T01:39:24.383Z,55.86
2019-02-23T01:40:24.383Z,56.07
2019-02-23T01:41:24.357Z,56.70
2019-02-23T01:42:24.353Z,56.70
2019-02-23T01:43:24.337Z,56.81
2019-02-23T01:44:24.324Z,57.12
2019-02-23T01:45:24.327Z,56.38
2019-02-23T01:46:24.301Z,56.91
2019-02-23T01:47:24.291Z,56.70
2019-02-23T01:48:24.278Z,57.56
2019-02-23T01:49:24.267Z,56.18
2019-02-23T01:50:24.297Z,56.59
2019-02-23T01:51:24.273Z,56.91
2019-02-23T01:52:24.237Z,56.49
2019-02-23T01:53:24.229Z,54.94
2019-02-23T01:54:24.273Z,56.10
2019-02-23T01:55:24.232Z,56.73
2019-02-23T01:56:24.191Z,56.83
2019-02-23T01:57:24.190Z,57.04
2019-02-23T01:58:24.173Z,56.93
2019-02-23T01:59:24.257Z,57.04
2019-02-23T02:00:24.197Z,57.14
2019-02-23T02:01:24.141Z,57.04
2019-02-23T02:02:24.120Z,57.35
2019-02-23T02:03:24.113Z,57.67
2019-02-23T02:04:24.111Z,57.67
2019-02-23T02:05:24.109Z,57.67
2019-02-23T02:06:24.108Z,57.67
2019-02-23T02:07:24.063Z,57.98
2019-02-23T02:08:24.064Z,58.01
2019-02-23T02:09:24.056Z,57.67
2019-02-23T02:10:24.037Z,58.40
2019-02-23T02:11:24.036Z,58.11
2019-02-23T02:12:24.039Z,58.01
2019-02-23T02:13:24.005Z,58.09
2019-02-23T02:14:23.992Z,57.78
2019-02-23T02:15:24.009Z,57.70
2019-02-23T02:16:23.967Z,59.16
2019-02-23T02:17:24.075Z,59.16
2019-02-23T02:18:23.945Z,59.69
2019-02-23T02:19:23.944Z,58.85
2019-02-23T02:20:23.949Z,59.16
2019-02-23T02:21:23.922Z,59.27
2019-02-23T02:22:23.906Z,60.21
2019-02-23T02:23:23.902Z,59.69
2019-02-23T02:24:23.884Z,59.69
2019-02-23T02:25:23.893Z,59.69
2019-02-23T02:26:23.860Z,59.69
2019-02-23T02:27:23.850Z,59.58
2019-02-23T02:28:23.835Z,60.11
2019-02-23T02:29:23.829Z,61.05
2019-02-23T02:30:23.841Z,60.42
2019-02-23T02:31:23.811Z,60.21
2019-02-23T02:32:23.798Z,59.79
2019-02-23T02:33:23.793Z,60.11
2019-02-23T02:34:23.772Z,59.92
2019-02-23T02:35:23.781Z,60.03
2019-02-23T02:36:23.770Z,60.53
2019-02-23T02:37:23.740Z,59.90
2019-02-23T02:38:23.730Z,60.13
2019-02-23T02:39:23.716Z,59.90
2019-02-23T02:40:24.213Z,59.58
2019-02-23T02:41:23.856Z,59.48
2019-02-23T02:42:23.689Z,59.69
2019-02-23T02:43:23.672Z,59.92
2019-02-23T02:44:23.661Z,59.82
2019-02-23T02:45:23.672Z,60.03
2019-02-23T02:46:23.654Z,60.03
2019-02-23T02:47:23.630Z,60.87
2019-02-23T02:48:23.626Z,60.35
2019-02-23T02:49:23.607Z,60.66
2019-02-23T02:50:24.906Z,61.08
2019-02-23T02:51:23.583Z,60.74
2019-02-23T02:52:23.575Z,62.02
2019-02-23T02:53:23.573Z,60.77
2019-02-23T02:54:23.575Z,60.97
2019-02-23T02:55:23.566Z,60.87
2019-02-23T02:56:23.538Z,61.08
2019-02-23T02:57:23.545Z,61.92
2019-02-23T02:58:23.509Z,61.82
2019-02-23T02:59:23.503Z,61.18
2019-02-23T03:00:23.505Z,61.60
2019-02-23T03:01:23.475Z,60.87
2019-02-23T03:02:23.474Z,61.18
2019-02-23T03:03:23.446Z,61.94
2019-02-23T03:04:23.447Z,61.71
2019-02-23T03:05:23.460Z,61.94
2019-02-23T03:06:23.485Z,62.16
2019-02-23T03:07:23.414Z,61.84
2019-02-23T03:08:23.479Z,61.18
2019-02-23T03:09:23.388Z,59.95
2019-02-23T03:10:23.475Z,60.48
2019-02-23T03:11:23.365Z,60.79
2019-02-23T03:12:23.355Z,61.32
2019-02-23T03:13:23.353Z,61.21
2019-02-23T03:14:23.329Z,61.92
2019-02-23T03:15:23.358Z,61.00
2019-02-23T03:16:23.314Z,61.11
2019-02-23T03:17:23.295Z,61.00
2019-02-23T03:18:23.344Z,61.00
2019-02-23T03:19:23.291Z,61.32
2019-02-23T03:20:24.926Z,61.32
2019-02-23T03:21:24.252Z,61.84
2019-02-23T03:22:23.244Z,61.94
2019-02-23T03:23:23.238Z,61.74
2019-02-23T03:24:23.217Z,61.42
2019-02-23T03:25:23.236Z,62.05
2019-02-23T03:26:23.200Z,61.53
2019-02-23T03:27:23.190Z,62.05
2019-02-23T03:28:23.179Z,62.18
2019-02-23T03:29:23.218Z,61.84
2019-02-23T03:30:23.186Z,62.05
2019-02-23T03:31:23.157Z,62.47
2019-02-23T03:32:23.134Z,61.94
2019-02-23T03:33:23.128Z,61.32
2019-02-23T03:34:23.110Z,61.42
2019-02-23T03:35:23.119Z,61.42
2019-02-23T03:36:23.091Z,61.84
2019-02-23T03:37:23.075Z,62.99
2019-02-23T03:38:23.072Z,62.47
2019-02-23T03:39:23.070Z,61.94
2019-02-23T03:40:23.079Z,61.94
2019-02-23T03:41:23.101Z,61.94
2019-02-23T03:42:23.027Z,62.26
2019-02-23T03:43:23.012Z,61.82
2019-02-23T03:44:23.008Z,62.47
2019-02-23T03:45:22.989Z,62.99
2019-02-23T03:46:22.993Z,61.94
2019-02-23T03:47:22.967Z,61.94
2019-02-23T03:48:22.959Z,61.84
2019-02-23T03:49:22.951Z,61.94
2019-02-23T03:50:22.945Z,62.13
2019-02-23T03:51:22.948Z,61.82
2019-02-23T03:52:22.919Z,61.40
2019-02-23T03:53:22.900Z,60.77
2019-02-23T03:54:22.893Z,62.02
2019-02-23T03:55:22.884Z,61.82
2019-02-23T03:56:22.881Z,62.13
2019-02-23T03:57:22.853Z,61.92
2019-02-23T03:58:22.854Z,62.10
2019-02-23T03:59:22.836Z,61.92
2019-02-23T04:00:22.831Z,60.97
2019-02-23T04:01:22.849Z,60.66
2019-02-23T04:02:22.830Z,61.71
2019-02-23T04:03:22.791Z,60.94
2019-02-23T04:04:22.787Z,60.94
2019-02-23T04:05:22.772Z,61.16
2019-02-23T04:06:22.779Z,60.74
2019-02-23T04:07:22.749Z,60.66
2019-02-23T04:08:22.738Z,60.11
2019-02-23T04:09:22.734Z,60.94
2019-02-23T04:10:22.709Z,60.00
2019-02-23T04:11:22.722Z,60.11
2019-02-23T04:12:22.695Z,60.63
2019-02-23T04:13:22.688Z,60.84
2019-02-23T04:14:22.670Z,60.21
2019-02-23T04:15:22.659Z,60.00
2019-02-23T04:16:22.668Z,61.05
2019-02-23T04:17:22.658Z,61.36
2019-02-23T04:18:22.627Z,61.71
2019-02-23T04:19:22.801Z,61.47
2019-02-23T04:20:22.601Z,61.60
2019-02-23T04:21:22.608Z,61.82
2019-02-23T04:22:22.589Z,61.82
2019-02-23T04:23:22.583Z,61.60
2019-02-23T04:24:22.668Z,61.29
2019-02-23T04:25:22.556Z,61.92
2019-02-23T04:26:22.555Z,61.50
2019-02-23T04:27:22.522Z,62.13
2019-02-23T04:28:22.516Z,61.60
2019-02-23T04:29:22.672Z,61.18
2019-02-23T04:30:22.491Z,61.82
2019-02-23T04:31:22.502Z,61.92
2019-02-23T04:32:22.476Z,61.18
2019-02-23T04:33:22.457Z,62.02
2019-02-23T04:34:22.521Z,61.40
2019-02-23T04:35:22.449Z,61.40
2019-02-23T04:36:22.454Z,61.08
2019-02-23T04:37:22.423Z,60.55
2019-02-23T04:38:22.401Z,62.02
2019-02-23T04:39:22.588Z,60.24
2019-02-23T04:40:22.393Z,59.82
2019-02-23T04:41:22.548Z,60.24
2019-02-23T04:42:22.363Z,60.24
2019-02-23T04:43:22.363Z,61.08
2019-02-23T04:44:22.433Z,60.77
2019-02-23T04:45:22.347Z,60.97
2019-02-23T04:46:22.340Z,60.97
2019-02-23T04:47:22.304Z,60.97
2019-02-23T04:48:22.295Z,61.08
2019-02-23T04:49:22.289Z,59.92
2019-02-23T04:50:22.293Z,60.66
2019-02-23T04:51:22.287Z,60.87
2019-02-23T04:52:22.254Z,60.77
2019-02-23T04:53:22.236Z,61.40
2019-02-23T04:54:22.231Z,60.77
2019-02-23T04:55:22.220Z,61.40
2019-02-23T04:56:22.220Z,61.92
2019-02-23T04:57:22.196Z,61.40
2019-02-23T04:58:22.201Z,61.71
2019-02-23T04:59:22.174Z,61.92
2019-02-23T05:00:22.169Z,61.50
2019-02-23T05:01:22.182Z,61.50
2019-02-23T05:02:22.158Z,62.55
2019-02-23T05:03:22.137Z,62.55
2019-02-23T05:04:22.140Z,62.79
2019-02-23T05:05:22.110Z,62.99
2019-02-23T05:06:22.202Z,62.97
2019-02-23T05:07:22.124Z,62.58
2019-02-23T05:08:22.075Z,62.55
2019-02-23T05:09:22.071Z,62.79
2019-02-23T05:10:22.050Z,63.10
2019-02-23T05:11:22.055Z,61.92
2019-02-23T05:12:22.061Z,61.53
2019-02-23T05:13:22.016Z,62.65
2019-02-23T05:14:22.008Z,62.65
2019-02-23T05:15:22.001Z,63.73
2019-02-23T05:16:22.027Z,63.31
2019-02-23T05:17:21.974Z,63.21
2019-02-23T05:18:21.967Z,63.10
2019-02-23T05:19:21.966Z,62.97
2019-02-23T05:20:21.953Z,63.73
2019-02-23T05:21:26.403Z,63.63
2019-02-23T05:22:24.196Z,63.97
2019-02-23T05:23:21.909Z,63.97
2019-02-23T05:24:21.913Z,64.68
2019-02-23T05:25:21.897Z,64.39
2019-02-23T05:26:21.905Z,65.02
2019-02-23T05:27:21.883Z,64.81
2019-02-23T05:28:21.879Z,64.89
2019-02-23T05:29:21.843Z,65.34
2019-02-23T05:30:21.832Z,65.44
2019-02-23T05:31:22.289Z,65.12
2019-02-23T05:32:21.814Z,65.26
2019-02-23T05:33:21.824Z,65.23
2019-02-23T05:34:21.790Z,65.34
2019-02-23T05:35:21.787Z,65.78
2019-02-23T05:36:21.765Z,65.68
2019-02-23T05:37:21.803Z,65.78
2019-02-23T05:38:21.757Z,65.89
2019-02-23T05:39:21.747Z,66.10
2019-02-23T05:40:21.728Z,66.03
2019-02-23T05:41:21.719Z,65.61
2019-02-23T05:42:21.729Z,66.13
2019-02-23T05:43:21.705Z,66.94
2019-02-23T05:44:21.685Z,67.15
2019-02-23T05:45:21.671Z,67.29
2019-02-23T05:46:21.654Z,66.34
2019-02-23T05:47:21.681Z,66.55
2019-02-23T05:48:21.634Z,66.76
2019-02-23T05:49:21.629Z,66.34
2019-02-23T05:50:21.613Z,66.66
2019-02-23T05:51:21.603Z,66.55
2019-02-23T05:52:21.757Z,66.34
2019-02-23T05:53:21.584Z,66.97
2019-02-23T05:54:21.573Z,67.18
2019-02-23T05:55:21.565Z,67.18
2019-02-23T05:56:21.554Z,65.71
2019-02-23T05:57:21.729Z,66.45
2019-02-23T05:58:21.533Z,66.13
2019-02-23T05:59:21.513Z,66.34
2019-02-23T06:00:21.507Z,65.71
2019-02-23T06:01:21.494Z,66.37
2019-02-23T06:02:21.520Z,66.03
2019-02-23T06:03:21.482Z,66.90
2019-02-23T06:04:21.469Z,66.55
2019-02-23T06:05:21.449Z,66.58
2019-02-23T06:06:21.445Z,66.66
2019-02-23T06:07:21.501Z,67.00
2019-02-23T06:08:21.429Z,67.32
2019-02-23T06:09:21.402Z,67.11
2019-02-23T06:10:21.395Z,67.92
2019-02-23T06:11:21.387Z,67.21
2019-02-23T06:12:21.399Z,67.60
2019-02-23T06:13:21.359Z,66.87
2019-02-23T06:14:21.353Z,66.76
2019-02-23T06:15:21.372Z,66.76
2019-02-23T06:16:21.329Z,67.08
2019-02-23T06:17:21.339Z,67.08
2019-02-23T06:18:21.310Z,67.40
2019-02-23T06:19:21.298Z,67.18
2019-02-23T06:20:21.285Z,67.29
2019-02-23T06:21:21.273Z,66.76
2019-02-23T06:22:21.281Z,66.76
2019-02-23T06:23:21.252Z,66.66
2019-02-23T06:24:21.369Z,66.66
2019-02-23T06:25:21.241Z,66.76
2019-02-23T06:26:21.215Z,66.76
2019-02-23T06:27:21.225Z,66.87
2019-02-23T06:28:21.222Z,67.08
2019-02-23T06:29:21.193Z,65.81
2019-02-23T06:30:21.172Z,66.03
2019-02-23T06:31:21.181Z,65.92
2019-02-23T06:32:21.199Z,65.92
2019-02-23T06:33:21.144Z,66.87
2019-02-23T06:34:21.129Z,65.84
2019-02-23T06:35:21.121Z,66.13
2019-02-23T06:36:21.111Z,66.48
2019-02-23T06:37:21.119Z,66.55
2019-02-23T06:38:21.096Z,66.66
2019-02-23T06:39:21.083Z,66.34
2019-02-23T06:40:21.065Z,66.76
2019-02-23T06:41:21.049Z,66.66
2019-02-23T06:42:21.067Z,67.29
2019-02-23T06:43:21.043Z,66.97
2019-02-23T06:44:21.025Z,66.76
2019-02-23T06:45:21.021Z,67.29
2019-02-23T06:46:21.695Z,67.82
2019-02-23T06:47:21.016Z,67.26
2019-02-23T06:48:20.985Z,67.26
2019-02-23T06:49:20.966Z,67.36
2019-02-23T06:50:20.955Z,66.84
2019-02-23T06:51:20.988Z,66.84
2019-02-23T06:52:20.968Z,66.63
2019-02-23T06:53:20.923Z,67.79
2019-02-23T06:54:20.921Z,66.66
2019-02-23T06:55:20.898Z,66.55
2019-02-23T06:56:21.014Z,66.42
2019-02-23T06:57:20.907Z,65.78
2019-02-23T06:58:20.902Z,65.89
2019-02-23T06:59:20.858Z,66.63
2019-02-23T07:00:20.867Z,65.86
2019-02-23T07:01:20.839Z,66.70
2019-02-23T07:02:20.931Z,66.70
2019-02-23T07:03:20.832Z,65.86
2019-02-23T07:04:20.802Z,66.14
2019-02-23T07:05:20.802Z,66.36
2019-02-23T07:06:20.796Z,66.46
2019-02-23T07:07:20.806Z,65.62
2019-02-23T07:08:20.785Z,65.83
2019-02-23T07:09:20.773Z,65.83
2019-02-23T07:10:20.749Z,65.62
2019-02-23T07:11:20.728Z,66.25
2019-02-23T07:12:20.732Z,66.46
2019-02-23T07:13:20.699Z,66.33
2019-02-23T07:14:20.775Z,65.80
2019-02-23T07:15:20.672Z,64.43
2019-02-23T07:16:20.674Z,64.65
2019-02-23T07:17:20.694Z,64.33
2019-02-23T07:18:20.677Z,64.43
2019-02-23T07:19:20.643Z,63.78
2019-02-23T07:20:20.627Z,63.28
2019-02-23T07:21:20.616Z,63.26
2019-02-23T07:22:20.605Z,62.84
2019-02-23T07:23:20.621Z,62.52
2019-02-23T07:24:20.578Z,63.26
2019-02-23T07:25:20.578Z,63.36
2019-02-23T07:26:20.582Z,63.46
2019-02-23T07:27:20.547Z,63.04
2019-02-23T07:28:20.561Z,63.57
2019-02-23T07:29:20.541Z,63.89
2019-02-23T07:30:20.513Z,63.99
2019-02-23T07:31:20.525Z,65.04
2019-02-23T07:32:20.491Z,64.20
2019-02-23T07:33:32.380Z,63.75
2019-02-23T07:34:21.502Z,63.12
2019-02-23T07:35:20.480Z,63.23
2019-02-23T07:36:20.450Z,62.18
2019-02-23T07:37:20.466Z,61.65
2019-02-23T07:38:20.473Z,60.82
2019-02-23T07:39:20.414Z,60.05
2019-02-23T07:40:20.913Z,59.42
2019-02-23T07:41:20.417Z,59.24
2019-02-23T07:42:20.389Z,59.22
2019-02-23T07:43:20.423Z,59.22
2019-02-23T07:44:20.364Z,59.00
2019-02-23T07:45:20.341Z,59.32
2019-02-23T07:46:20.379Z,59.29
2019-02-23T07:47:20.326Z,58.87
2019-02-23T07:48:20.365Z,58.14
2019-02-23T07:49:20.338Z,57.93
2019-02-23T07:50:20.305Z,57.75
2019-02-23T07:51:20.282Z,57.20
2019-02-23T07:52:26.343Z,57.51
2019-02-23T07:53:21.292Z,57.54
2019-02-23T07:54:20.261Z,58.03
2019-02-23T07:55:20.249Z,58.98
2019-02-23T07:56:20.229Z,58.03
2019-02-23T07:57:20.220Z,58.03
2019-02-23T07:58:20.229Z,57.62
2019-02-23T07:59:20.230Z,57.40
2019-02-23T08:00:20.226Z,57.30
2019-02-23T08:01:20.171Z,56.67
2019-02-23T08:02:20.199Z,57.09
2019-02-23T08:03:20.157Z,57.51
2019-02-23T08:04:20.167Z,57.12
2019-02-23T08:05:20.174Z,56.91
2019-02-23T08:06:20.152Z,57.43
2019-02-23T08:07:20.114Z,57.01
2019-02-23T08:08:20.132Z,57.01
2019-02-23T08:09:20.097Z,56.70
2019-02-23T08:10:20.095Z,56.99
2019-02-23T08:11:20.111Z,56.57
2019-02-23T08:12:20.065Z,55.76
2019-02-23T08:13:20.071Z,56.15
2019-02-23T08:14:20.033Z,57.17
2019-02-23T08:15:20.032Z,57.07
2019-02-23T08:16:20.031Z,56.96
2019-02-23T08:17:20.010Z,56.65
2019-02-23T08:18:20.026Z,54.94
2019-02-23T08:19:19.983Z,54.84
2019-02-23T08:20:19.968Z,55.05
2019-02-23T08:21:19.966Z,55.02
2019-02-23T08:22:19.972Z,52.94
2019-02-23T08:23:19.973Z,52.62
2019-02-23T08:24:19.916Z,53.77
2019-02-23T08:25:19.905Z,52.41
2019-02-23T08:26:19.911Z,52.51
2019-02-23T08:27:19.902Z,52.72
2019-02-23T08:28:19.916Z,52.62
2019-02-23T08:29:19.871Z,51.57
2019-02-23T08:30:19.852Z,51.47
2019-02-23T08:31:19.848Z,51.37
2019-02-23T08:32:19.859Z,51.65
2019-02-23T08:33:19.862Z,50.82
2019-02-23T08:34:19.812Z,51.01
2019-02-23T08:35:19.820Z,49.98
2019-02-23T08:36:19.785Z,49.77
2019-02-23T08:37:19.860Z,49.65
2019-02-23T08:38:19.774Z,49.33
2019-02-23T08:39:19.782Z,48.81
2019-02-23T08:40:19.751Z,49.12
2019-02-23T08:41:19.739Z,49.65
2019-02-23T08:42:19.717Z,49.96
2019-02-23T08:43:20.779Z,49.65
2019-02-23T08:44:19.717Z,49.75
2019-02-23T08:45:19.712Z,48.79
2019-02-23T08:46:19.675Z,48.68
2019-02-23T08:47:19.661Z,48.81
2019-02-23T08:48:19.944Z,49.41
2019-02-23T08:49:19.682Z,49.73
2019-02-23T08:50:19.656Z,50.67
2019-02-23T08:51:19.650Z,50.54
2019-02-23T08:52:19.711Z,48.55
2019-02-23T08:54:20.701Z,48.03
2019-02-23T08:55:19.585Z,46.97
2019-02-23T08:56:19.576Z,47.07
2019-02-23T08:57:19.631Z,46.55
2019-02-23T08:58:19.556Z,46.34
2019-02-23T08:59:19.548Z,46.11
2019-02-23T09:00:19.518Z,46.23
2019-02-23T09:01:19.520Z,46.01
2019-02-23T09:02:19.523Z,45.70
2019-02-23T09:03:19.498Z,45.70
2019-02-23T09:04:19.531Z,46.01
2019-02-23T09:05:19.468Z,45.38
2019-02-23T09:06:19.459Z,44.86
2019-02-23T09:08:20.602Z,43.27
2019-02-23T09:09:19.625Z,44.63
2019-02-23T09:10:19.591Z,43.46
2019-02-23T09:11:19.582Z,43.57
2019-02-23T09:12:19.877Z,43.36
2019-02-23T09:13:19.622Z,42.74
2019-02-23T09:14:20.258Z,42.00
2019-02-23T09:15:22.051Z,41.38
2019-02-23T09:16:19.369Z,41.59
2019-02-23T09:17:19.334Z,41.49
2019-02-23T09:18:19.345Z,42.00
2019-02-23T09:19:19.334Z,42.71
2019-02-23T09:20:28.688Z,41.88
2019-02-23T09:21:20.303Z,42.09
2019-02-23T09:22:19.276Z,41.57
2019-02-23T09:23:19.271Z,41.57
2019-02-23T09:24:19.298Z,40.42
2019-02-23T09:25:19.259Z,40.84
2019-02-23T09:26:19.326Z,40.94
2019-02-23T09:27:19.215Z,40.11
2019-02-23T09:28:19.210Z,40.53
2019-02-23T09:29:19.226Z,40.01
2019-02-23T09:30:19.194Z,40.22
2019-02-23T09:31:19.186Z,39.36
2019-02-23T09:32:19.214Z,38.74
2019-02-23T09:33:19.148Z,40.08
2019-02-23T09:34:19.159Z,39.14
2019-02-23T09:35:19.134Z,39.86
2019-02-23T09:36:19.131Z,38.82
2019-02-23T09:37:19.118Z,39.97
2019-02-23T09:38:19.101Z,39.97
2019-02-23T09:39:19.151Z,38.91
2019-02-23T09:40:19.077Z,38.72
2019-02-23T09:41:19.071Z,39.24
2019-02-23T09:42:19.069Z,38.81
2019-02-23T09:43:19.052Z,39.22
2019-02-23T09:44:19.070Z,38.81
2019-02-23T09:45:19.018Z,38.18
2019-02-23T09:46:19.013Z,38.08
2019-02-23T09:47:18.999Z,36.50
2019-02-23T09:48:19.001Z,35.67
2019-02-23T09:49:19.008Z,36.71
2019-02-23T09:50:18.987Z,35.24
2019-02-23T09:51:18.968Z,35.53
2019-02-23T09:52:18.939Z,36.16
2019-02-23T09:53:18.935Z,35.42
2019-02-23T09:54:18.914Z,34.89
2019-02-23T09:55:18.927Z,35.10
2019-02-23T09:56:18.892Z,34.88
2019-02-23T09:57:18.891Z,32.87
2019-02-23T09:58:18.866Z,32.87
2019-02-23T09:59:18.870Z,32.32
2019-02-23T10:00:18.876Z,30.98
2019-02-23T10:01:18.830Z,31.27
2019-02-23T10:02:18.825Z,30.43
2019-02-23T10:03:18.817Z,31.26
2019-02-23T10:04:18.806Z,29.90
2019-02-23T10:05:18.817Z,29.69
2019-02-23T10:06:18.783Z,29.57
2019-02-23T10:07:18.766Z,29.77
2019-02-23T10:08:18.757Z,29.14
2019-02-23T10:09:18.747Z,28.81
2019-02-23T10:10:18.758Z,28.81
2019-02-23T10:11:18.725Z,29.35
2019-02-23T10:12:18.714Z,30.26
2019-02-23T10:13:18.705Z,28.70
2019-02-23T10:14:18.701Z,26.93
2019-02-23T10:15:18.711Z,26.59
2019-02-23T10:16:18.677Z,25.77
2019-02-23T10:17:18.660Z,25.24
2019-02-23T10:18:18.648Z,24.74
2019-02-23T10:19:18.635Z,24.95
2019-02-23T10:20:18.638Z,25.14
2019-02-23T10:21:18.611Z,25.04
2019-02-23T10:22:18.611Z,24.51
2019-02-23T10:23:22.129Z,24.91
2019-02-23T10:24:18.580Z,24.69
2019-02-23T10:25:18.587Z,24.38
2019-02-23T10:26:18.552Z,23.77
2019-02-23T10:27:18.555Z,24.17
2019-02-23T10:28:18.766Z,23.75
2019-02-23T10:29:18.531Z,24.17
2019-02-23T10:30:18.532Z,22.72
2019-02-23T10:31:18.503Z,22.71
2019-02-23T10:32:18.530Z,22.08
2019-02-23T10:33:18.543Z,24.12
2019-02-23T10:34:18.462Z,22.07
2019-02-23T10:35:18.471Z,21.74
2019-02-23T10:36:18.470Z,22.14
2019-02-23T10:37:18.431Z,21.92
2019-02-23T10:38:18.422Z,21.39
2019-02-23T10:39:18.424Z,19.95
2019-02-23T10:40:18.501Z,20.86
2019-02-23T10:41:18.390Z,19.83
2019-02-23T10:42:18.434Z,19.30
2019-02-23T10:43:18.379Z,19.70
2019-02-23T10:44:18.353Z,18.87
2019-02-23T10:45:18.358Z,19.18
2019-02-23T10:46:18.334Z,18.47
2019-02-23T10:47:18.322Z,18.06
2019-02-23T10:48:18.311Z,18.07
2019-02-23T10:49:18.292Z,17.65
2019-02-23T10:50:18.294Z,19.78
2019-02-23T10:51:18.273Z,18.44
2019-02-23T10:52:18.267Z,17.41
2019-02-23T10:53:18.281Z,17.59
2019-02-23T10:54:18.232Z,16.36
2019-02-23T10:55:18.248Z,15.44
2019-02-23T10:56:18.213Z,16.14
2019-02-23T10:57:18.205Z,15.94
2019-02-23T10:58:18.201Z,15.22
2019-02-23T10:59:18.183Z,15.22
2019-02-23T11:00:18.190Z,15.01
2019-02-23T11:01:18.159Z,15.42
2019-02-23T11:02:18.151Z,15.22
2019-02-23T11:03:18.132Z,14.30
2019-02-23T11:04:18.122Z,14.00
2019-02-23T11:05:18.130Z,13.69
2019-02-23T11:06:18.103Z,13.89
2019-02-23T11:07:18.098Z,13.07
2019-02-23T11:08:18.083Z,13.78
2019-02-23T11:09:18.067Z,12.26
2019-02-23T11:10:18.222Z,12.05
2019-02-23T11:11:18.053Z,12.76
2019-02-23T11:12:18.036Z,12.87
2019-02-23T11:13:18.032Z,12.67
2019-02-23T11:14:18.032Z,12.46
2019-02-23T11:15:18.018Z,12.05
2019-02-23T11:16:17.993Z,12.04
2019-02-23T11:17:17.986Z,12.04
2019-02-23T11:18:17.999Z,12.74
2019-02-23T11:19:17.957Z,10.72
2019-02-23T11:20:17.954Z,11.03
2019-02-23T11:21:17.951Z,11.24
2019-02-23T11:22:17.924Z,11.43
2019-02-23T11:23:17.918Z,11.83
2019-02-23T11:24:18.509Z,11.93
2019-02-23T11:25:17.892Z,12.12
2019-02-23T11:26:17.951Z,11.00
2019-02-23T11:27:17.868Z,11.20
2019-02-23T11:28:17.855Z,12.21
2019-02-23T11:29:17.842Z,11.19
2019-02-23T11:30:17.840Z,10.28
2019-02-23T11:31:17.849Z,10.89
2019-02-23T11:32:17.812Z,9.59
2019-02-23T11:33:17.872Z,10.72
2019-02-23T11:34:17.788Z,10.94
2019-02-23T11:35:18.023Z,10.84
2019-02-23T11:36:17.788Z,11.15
2019-02-23T11:37:17.757Z,12.24
2019-02-23T11:38:17.749Z,11.52
2019-02-23T11:39:17.741Z,11.41
2019-02-23T11:40:17.727Z,10.60
2019-02-23T11:41:17.727Z,11.10
2019-02-23T11:42:17.705Z,9.58
2019-02-23T11:43:17.686Z,10.49
2019-02-23T11:44:17.680Z,10.18
2019-02-23T11:45:17.664Z,10.38
2019-02-23T11:46:17.682Z,9.77
2019-02-23T11:47:17.644Z,9.76
2019-02-23T11:48:17.633Z,10.06
2019-02-23T11:49:17.630Z,9.86
2019-02-23T11:50:17.611Z,9.27
2019-02-23T11:51:17.634Z,9.97
2019-02-23T11:52:17.586Z,9.87
2019-02-23T11:53:17.581Z,9.67
2019-02-23T11:54:17.562Z,10.89
2019-02-23T11:55:17.556Z,9.98
2019-02-23T11:56:17.564Z,10.38
2019-02-23T11:57:17.541Z,10.17
2019-02-23T11:58:17.520Z,10.16
2019-02-23T11:59:17.516Z,9.65
2019-02-23T12:00:17.520Z,9.34
2019-02-23T12:01:17.505Z,9.24
2019-02-23T12:02:17.475Z,9.04
2019-02-23T12:03:17.464Z,9.34
2019-02-23T12:04:17.453Z,10.46
2019-02-23T12:05:17.444Z,9.86
2019-02-23T12:06:17.462Z,9.56
2019-02-23T12:07:17.415Z,10.77
2019-02-23T12:08:17.566Z,12.08
2019-02-23T12:09:17.408Z,10.16
2019-02-23T12:10:17.390Z,10.67
2019-02-23T12:11:17.414Z,10.37
2019-02-23T12:12:17.370Z,10.88
2019-02-23T12:13:17.351Z,10.27
2019-02-23T12:14:17.353Z,10.89
2019-02-23T12:15:17.334Z,12.23
2019-02-23T12:16:17.359Z,12.04
2019-02-23T12:17:17.317Z,12.67
2019-02-23T12:18:17.300Z,12.89
2019-02-23T12:19:17.297Z,12.60
2019-02-23T12:20:17.289Z,14.03
2019-02-23T12:21:17.294Z,15.36
2019-02-23T12:22:17.258Z,13.74
2019-02-23T12:23:17.239Z,14.46
2019-02-23T12:24:17.228Z,14.16
2019-02-23T12:25:17.218Z,14.87
2019-02-23T12:26:17.226Z,15.79
2019-02-23T12:27:17.198Z,14.16
2019-02-23T12:28:17.190Z,15.59
2019-02-23T12:29:17.178Z,15.78
2019-02-23T12:30:17.180Z,15.38
2019-02-23T12:31:17.170Z,14.58
2019-02-23T12:32:17.148Z,15.09
2019-02-23T12:33:17.132Z,15.91
2019-02-23T12:34:17.121Z,14.79
2019-02-23T12:35:17.106Z,16.12
2019-02-23T12:36:17.114Z,16.84
2019-02-23T12:37:17.103Z,17.25
2019-02-23T12:38:17.071Z,17.86
2019-02-23T12:39:17.068Z,17.66
2019-02-23T12:40:17.054Z,19.58
2019-02-23T12:41:17.069Z,18.74
2019-02-23T12:42:17.026Z,16.49
2019-02-23T12:43:17.023Z,17.38
2019-02-23T12:44:17.005Z,15.43
2019-02-23T12:45:17.001Z,13.79
2019-02-23T12:46:17.766Z,13.97
2019-02-23T12:47:16.972Z,13.56
2019-02-23T12:48:16.959Z,13.24
2019-02-23T12:49:16.954Z,12.52
2019-02-23T12:50:16.934Z,12.72
2019-02-23T12:51:16.941Z,13.13
2019-02-23T12:52:17.357Z,12.42
2019-02-23T12:53:16.910Z,12.63
2019-02-23T12:54:17.241Z,12.33
2019-02-23T12:55:16.898Z,13.14